createdAt,value
2019-03-18T00:00:29.959Z,2.90
2019-03-18T00:02:59.419Z,2.90
2019-03-18T00:05:29.176Z,2.80
2019-03-18T00:07:58.572Z,2.80
2019-03-18T00:10:27.893Z,2.70
2019-03-18T00:12:57.191Z,2.70
2019-03-18T00:15:26.504Z,2.70
2019-03-18T00:17:55.802Z,2.60
2019-03-18T00:20:25.126Z,2.60
2019-03-18T00:22:54.439Z,2.50
2019-03-18T00:25:24.963Z,2.50
2019-03-18T00:27:54.289Z,2.40
2019-03-18T00:30:23.626Z,2.30
2019-03-18T00:32:52.926Z,2.30
2019-03-18T00:35:22.250Z,2.30
2019-03-18T00:37:51.546Z,2.30
2019-03-18T00:40:21.224Z,2.40
2019-03-18T00:42:50.590Z,2.30
2019-03-18T00:45:19.985Z,2.30
2019-03-18T00:47:49.363Z,2.30
2019-03-18T00:50:19.672Z,2.20
2019-03-18T00:52:49.122Z,2.20
2019-03-18T00:55:18.415Z,2.20
2019-03-18T00:57:47.731Z,2.20
2019-03-18T01:00:18.284Z,2.20
2019-03-18T01:02:49.686Z,2.20
2019-03-18T01:05:19.430Z,2.10
2019-03-18T01:07:48.826Z,2.00
2019-03-18T01:10:18.458Z,2.00
2019-03-18T01:12:47.799Z,2.00
2019-03-18T01:15:27.313Z,2.00
2019-03-18T01:17:48.174Z,2.10
2019-03-18T01:20:18.739Z,2.00
2019-03-18T01:22:48.056Z,2.00
2019-03-18T01:25:17.370Z,2.00
2019-03-18T01:27:46.672Z,2.00
2019-03-18T01:30:16.076Z,2.00
2019-03-18T01:32:45.434Z,2.00
2019-03-18T01:35:14.796Z,2.00
2019-03-18T01:37:44.120Z,1.90
2019-03-18T01:40:15.018Z,2.00
2019-03-18T01:42:43.572Z,2.00
2019-03-18T01:45:13.120Z,1.90
2019-03-18T01:47:42.534Z,1.80
2019-03-18T01:50:16.180Z,1.80
2019-03-18T01:52:45.641Z,1.80
2019-03-18T01:55:14.936Z,1.70
2019-03-18T01:57:44.301Z,1.60
2019-03-18T02:00:14.868Z,1.50
2019-03-18T02:02:44.184Z,1.60
2019-03-18T02:05:25.296Z,1.50
2019-03-18T02:07:54.586Z,1.50
2019-03-18T02:10:23.910Z,1.50
2019-03-18T02:12:53.221Z,1.50
2019-03-18T02:15:22.542Z,1.40
2019-03-18T02:17:51.878Z,1.40
2019-03-18T02:20:21.182Z,1.40
2019-03-18T02:22:50.505Z,1.30
2019-03-18T02:25:19.792Z,1.10
2019-03-18T02:27:49.178Z,1.10
2019-03-18T02:30:19.136Z,0.90
2019-03-18T02:32:48.636Z,1.10
2019-03-18T02:35:18.020Z,1.10
2019-03-18T02:37:48.447Z,1.20
2019-03-18T02:40:17.778Z,1.20
2019-03-18T02:42:47.087Z,1.20
2019-03-18T02:45:16.411Z,1.00
2019-03-18T02:47:45.717Z,1.00
2019-03-18T02:50:15.033Z,1.00
2019-03-18T02:52:44.350Z,1.10
2019-03-18T02:55:13.756Z,1.20
2019-03-18T02:57:43.054Z,1.30
2019-03-18T03:00:14.034Z,1.30
2019-03-18T03:02:43.390Z,1.10
2019-03-18T03:05:13.444Z,1.10
2019-03-18T03:07:42.721Z,1.10
2019-03-18T03:10:14.093Z,1.20
2019-03-18T03:12:43.385Z,1.30
2019-03-18T03:15:14.139Z,1.40
2019-03-18T03:17:43.811Z,1.40
2019-03-18T03:20:13.479Z,1.40
2019-03-18T03:22:42.868Z,1.50
2019-03-18T03:25:12.437Z,1.50
2019-03-18T03:27:41.795Z,1.60
2019-03-18T03:30:13.364Z,1.70
2019-03-18T03:32:42.767Z,1.50
2019-03-18T03:35:12.322Z,1.40
2019-03-18T03:37:41.777Z,1.30
2019-03-18T03:40:12.267Z,1.40
2019-03-18T03:42:41.592Z,1.50
2019-03-18T03:45:12.856Z,1.60
2019-03-18T03:47:42.331Z,1.70
2019-03-18T03:50:13.009Z,1.80
2019-03-18T03:52:42.324Z,1.90
2019-03-18T03:55:12.593Z,1.90
2019-03-18T03:57:41.958Z,1.80
2019-03-18T04:00:15.684Z,1.80
2019-03-18T04:02:45.112Z,1.80
2019-03-18T04:05:14.569Z,1.80
2019-03-18T04:07:55.636Z,1.90
2019-03-18T04:10:25.102Z,2.00
2019-03-18T04:12:54.611Z,2.00
2019-03-18T04:15:23.930Z,2.00
2019-03-18T04:17:53.272Z,2.10
2019-03-18T04:20:22.606Z,2.10
2019-03-18T04:22:51.915Z,2.20
2019-03-18T04:25:21.240Z,2.20
2019-03-18T04:27:50.583Z,2.20
2019-03-18T04:30:20.050Z,2.20
2019-03-18T04:32:49.364Z,2.20
2019-03-18T04:35:18.856Z,2.20
2019-03-18T04:37:48.164Z,2.30
2019-03-18T04:40:17.490Z,2.30
2019-03-18T04:42:46.785Z,2.30
2019-03-18T04:45:16.104Z,2.40
2019-03-18T04:47:45.406Z,2.50
2019-03-18T04:50:14.872Z,2.50
2019-03-18T04:52:44.171Z,2.50
2019-03-18T04:55:13.484Z,2.50
2019-03-18T04:57:42.780Z,2.50
2019-03-18T05:00:13.344Z,2.50
2019-03-18T05:02:42.712Z,2.30
2019-03-18T05:05:12.125Z,2.30
2019-03-18T05:07:41.559Z,2.20
2019-03-18T05:10:11.362Z,2.20
2019-03-18T05:12:40.753Z,2.20
2019-03-18T05:15:10.923Z,2.20
2019-03-18T05:17:41.204Z,2.30
2019-03-18T05:20:11.442Z,2.20
2019-03-18T05:22:40.773Z,2.20
2019-03-18T05:25:10.644Z,2.10
2019-03-18T05:27:40.036Z,2.10
2019-03-18T05:30:11.862Z,2.20
2019-03-18T05:32:41.350Z,2.10
2019-03-18T05:35:10.879Z,2.00
2019-03-18T05:37:40.182Z,1.90
2019-03-18T05:40:09.941Z,1.80
2019-03-18T05:42:39.230Z,1.80
2019-03-18T05:45:10.183Z,1.80
2019-03-18T05:47:40.075Z,1.80
2019-03-18T05:50:11.679Z,1.80
2019-03-18T05:52:41.080Z,1.80
2019-03-18T05:55:10.922Z,1.90
2019-03-18T05:57:40.243Z,2.00
2019-03-18T06:00:11.951Z,1.90
2019-03-18T06:02:41.332Z,2.00
2019-03-18T06:05:10.892Z,2.00
2019-03-18T06:07:40.259Z,2.00
2019-03-18T06:10:11.812Z,2.00
2019-03-18T06:12:41.165Z,2.20
2019-03-18T06:15:12.615Z,2.20
2019-03-18T06:17:51.666Z,2.30
2019-03-18T06:20:13.176Z,2.20
2019-03-18T06:22:42.480Z,2.20
2019-03-18T06:25:11.836Z,2.20
2019-03-18T06:27:41.183Z,2.20
2019-03-18T06:30:12.904Z,2.20
2019-03-18T06:32:42.274Z,2.30
2019-03-18T06:35:12.183Z,2.40
2019-03-18T06:37:41.666Z,2.50
2019-03-18T06:40:14.592Z,2.60
2019-03-18T06:42:43.909Z,2.90
2019-03-18T06:45:13.422Z,3.10
2019-03-18T06:47:43.790Z,3.40
2019-03-18T06:50:13.681Z,3.50
2019-03-18T06:53:02.316Z,3.70
2019-03-18T06:55:31.639Z,3.80
2019-03-18T06:58:00.927Z,3.90
2019-03-18T07:00:30.254Z,4.00
2019-03-18T07:02:59.556Z,3.90
2019-03-18T07:05:28.881Z,4.00
2019-03-18T07:07:59.246Z,4.10
2019-03-18T07:10:28.713Z,4.20
2019-03-18T07:12:58.381Z,4.30
2019-03-18T07:15:27.696Z,4.40
2019-03-18T07:17:57.065Z,4.60
2019-03-18T07:20:26.378Z,4.70
2019-03-18T07:22:55.681Z,4.80
2019-03-18T07:25:25.632Z,4.80
2019-03-18T07:27:54.969Z,4.90
2019-03-18T07:30:24.279Z,5.00
2019-03-18T07:32:53.603Z,5.00
2019-03-18T07:35:22.913Z,5.20
2019-03-18T07:37:52.233Z,5.20
2019-03-18T07:40:21.559Z,5.30
2019-03-18T07:42:50.894Z,5.30
2019-03-18T07:45:20.256Z,5.50
2019-03-18T07:47:49.578Z,5.50
2019-03-18T07:50:18.934Z,5.50
2019-03-18T07:52:48.257Z,5.50
2019-03-18T07:55:17.557Z,5.70
2019-03-18T07:57:46.880Z,5.90
2019-03-18T08:00:16.460Z,6.10
2019-03-18T08:02:45.791Z,6.10
2019-03-18T08:05:15.147Z,6.10
2019-03-18T08:07:44.475Z,6.20
2019-03-18T08:10:14.409Z,6.30
2019-03-18T08:12:43.744Z,6.40
2019-03-18T08:15:13.700Z,6.30
2019-03-18T08:17:43.031Z,6.30
2019-03-18T08:20:15.379Z,6.20
2019-03-18T08:22:44.699Z,6.30
2019-03-18T08:25:14.089Z,6.60
2019-03-18T08:27:43.397Z,6.80
2019-03-18T08:30:16.767Z,6.80
2019-03-18T08:32:46.211Z,6.60
2019-03-18T08:35:15.886Z,6.40
2019-03-18T08:37:45.184Z,6.20
2019-03-18T08:40:14.594Z,6.30
2019-03-18T08:42:43.914Z,6.40
2019-03-18T08:45:16.157Z,6.40
2019-03-18T08:47:45.480Z,6.60
2019-03-18T08:50:14.853Z,6.70
2019-03-18T08:52:44.184Z,6.80
2019-03-18T08:55:13.477Z,6.60
2019-03-18T08:57:42.801Z,6.50
2019-03-18T09:00:18.820Z,6.50
2019-03-18T09:02:48.124Z,6.50
2019-03-18T09:05:17.461Z,6.50
2019-03-18T09:07:46.844Z,6.70
2019-03-18T09:10:17.349Z,6.90
2019-03-18T09:12:46.668Z,6.90
2019-03-18T09:15:16.169Z,7.10
2019-03-18T09:17:46.448Z,7.30
2019-03-18T09:20:17.093Z,7.50
2019-03-18T09:22:46.512Z,7.50
2019-03-18T09:25:15.804Z,7.40
2019-03-18T09:27:46.100Z,7.50
2019-03-18T09:30:19.203Z,7.90
2019-03-18T09:32:48.880Z,8.30
2019-03-18T09:35:19.238Z,8.50
2019-03-18T09:37:48.616Z,9.10
2019-03-18T09:40:18.205Z,8.80
2019-03-18T09:42:47.549Z,8.30
2019-03-18T09:45:18.664Z,7.70
2019-03-18T09:47:48.031Z,7.30
2019-03-18T09:50:17.615Z,7.70
2019-03-18T09:52:46.957Z,8.10
2019-03-18T09:55:16.316Z,8.30
2019-03-18T09:57:57.440Z,8.30
2019-03-18T10:00:26.766Z,8.40
2019-03-18T10:02:56.112Z,8.40
2019-03-18T10:05:25.529Z,8.50
2019-03-18T10:07:54.847Z,8.30
2019-03-18T10:10:24.171Z,7.90
2019-03-18T10:12:53.462Z,7.20
2019-03-18T10:15:22.794Z,7.00
2019-03-18T10:17:52.095Z,6.90
2019-03-18T10:20:21.412Z,7.20
2019-03-18T10:22:50.776Z,7.40
2019-03-18T10:25:20.095Z,7.80
2019-03-18T10:27:49.425Z,8.00
2019-03-18T10:30:18.739Z,7.90
2019-03-18T10:32:48.041Z,8.00
2019-03-18T10:35:17.365Z,8.00
2019-03-18T10:37:47.759Z,7.80
2019-03-18T10:40:17.225Z,7.60
2019-03-18T10:42:46.627Z,7.30
2019-03-18T10:45:16.064Z,6.70
2019-03-18T10:47:45.466Z,6.40
2019-03-18T10:50:15.907Z,6.40
2019-03-18T10:52:45.645Z,6.60
2019-03-18T10:55:15.021Z,6.90
2019-03-18T10:57:44.341Z,7.20
2019-03-18T11:00:15.069Z,7.50
2019-03-18T11:02:44.979Z,8.00
2019-03-18T11:05:15.165Z,8.90
2019-03-18T11:07:44.460Z,8.50
2019-03-18T11:10:15.902Z,8.00
2019-03-18T11:12:45.300Z,7.50
2019-03-18T11:15:20.014Z,7.10
2019-03-18T11:17:49.324Z,7.10
2019-03-18T11:20:18.766Z,7.50
2019-03-18T11:22:48.138Z,8.60
2019-03-18T11:25:17.716Z,9.90
2019-03-18T11:27:47.017Z,10.20
2019-03-18T11:30:20.201Z,10.20
2019-03-18T11:32:49.499Z,9.90
2019-03-18T11:35:18.807Z,9.80
2019-03-18T11:37:48.181Z,9.20
2019-03-18T11:40:19.855Z,8.90
2019-03-18T11:42:49.229Z,8.50
2019-03-18T11:45:18.931Z,8.30
2019-03-18T11:47:48.238Z,9.00
2019-03-18T11:50:18.599Z,10.60
2019-03-18T11:52:48.035Z,11.80
2019-03-18T11:55:19.785Z,11.80
2019-03-18T11:57:49.178Z,11.30
2019-03-18T12:00:23.331Z,11.80
2019-03-18T12:02:53.703Z,12.40
2019-03-18T12:05:24.256Z,13.10
2019-03-18T12:08:04.299Z,14.30
2019-03-18T12:10:33.652Z,15.40
2019-03-18T12:13:02.951Z,16.10
2019-03-18T12:15:32.267Z,14.70
2019-03-18T12:18:01.563Z,14.00
2019-03-18T12:20:33.195Z,13.30
2019-03-18T12:23:03.026Z,12.00
2019-03-18T12:25:33.700Z,11.50
2019-03-18T12:28:05.247Z,11.30
2019-03-18T12:30:34.562Z,10.80
2019-03-18T12:33:04.153Z,10.50
2019-03-18T12:35:33.643Z,11.10
2019-03-18T12:38:03.069Z,12.00
2019-03-18T12:40:32.436Z,13.40
2019-03-18T12:43:01.786Z,14.30
2019-03-18T12:45:31.390Z,14.10
2019-03-18T12:48:00.806Z,13.40
2019-03-18T12:50:49.372Z,12.10
2019-03-18T12:53:01.287Z,11.50
2019-03-18T12:55:30.700Z,11.30
2019-03-18T12:58:00.082Z,11.10
2019-03-18T13:00:34.209Z,10.60
2019-03-18T13:03:04.058Z,11.00
2019-03-18T13:05:33.508Z,11.30
2019-03-18T13:08:03.157Z,11.20
2019-03-18T13:10:32.440Z,11.10
2019-03-18T13:13:01.782Z,11.10
2019-03-18T13:15:31.067Z,10.80
2019-03-18T13:18:19.809Z,10.40
2019-03-18T13:20:49.192Z,10.40
2019-03-18T13:23:18.589Z,10.00
2019-03-18T13:25:47.890Z,9.80
2019-03-18T13:28:18.120Z,10.00
2019-03-18T13:30:59.765Z,10.20
2019-03-18T13:33:29.052Z,10.70
2019-03-18T13:35:58.380Z,11.10
2019-03-18T13:38:27.724Z,11.20
2019-03-18T13:40:57.124Z,10.80
2019-03-18T13:43:28.075Z,10.80
2019-03-18T13:45:57.622Z,10.60
2019-03-18T13:48:27.109Z,10.70
2019-03-18T13:50:56.427Z,10.40
2019-03-18T13:53:25.735Z,10.60
2019-03-18T13:55:55.134Z,10.50
2019-03-18T13:58:24.455Z,10.50
2019-03-18T14:00:53.835Z,10.80
2019-03-18T14:03:23.179Z,10.50
2019-03-18T14:05:52.539Z,9.90
2019-03-18T14:08:21.873Z,9.70
2019-03-18T14:10:51.236Z,9.80
2019-03-18T14:13:20.550Z,10.00
2019-03-18T14:15:49.949Z,9.90
2019-03-18T14:18:21.874Z,10.10
2019-03-18T14:20:51.716Z,10.10
2019-03-18T14:23:21.157Z,9.80
2019-03-18T14:25:50.484Z,10.10
2019-03-18T14:28:19.811Z,10.30
2019-03-18T14:30:49.160Z,10.50
2019-03-18T14:33:18.581Z,10.20
2019-03-18T14:35:47.932Z,9.80
2019-03-18T14:38:17.253Z,9.80
2019-03-18T14:40:46.538Z,9.60
2019-03-18T14:43:15.856Z,9.40
2019-03-18T14:45:45.150Z,9.20
2019-03-18T14:48:17.588Z,8.90
2019-03-18T14:50:46.885Z,8.60
2019-03-18T14:53:16.217Z,8.30
2019-03-18T14:55:45.505Z,8.00
2019-03-18T14:58:14.826Z,7.80
2019-03-18T15:00:44.113Z,7.70
2019-03-18T15:03:13.429Z,7.50
2019-03-18T15:05:42.763Z,7.30
2019-03-18T15:08:12.054Z,7.20
2019-03-18T15:10:41.357Z,6.90
2019-03-18T15:13:10.727Z,6.60
2019-03-18T15:15:40.047Z,6.60
2019-03-18T15:18:09.574Z,6.60
2019-03-18T15:20:38.893Z,6.30
2019-03-18T15:23:08.193Z,5.90
2019-03-18T15:25:37.521Z,5.70
2019-03-18T15:28:06.878Z,5.50
2019-03-18T15:30:36.207Z,5.60
2019-03-18T15:33:05.492Z,5.90
2019-03-18T15:35:34.831Z,6.20
2019-03-18T15:38:04.196Z,6.30
2019-03-18T15:40:33.526Z,6.20
2019-03-18T15:43:02.851Z,6.10
2019-03-18T15:45:33.302Z,6.10
2019-03-18T15:48:02.621Z,6.10
2019-03-18T15:50:32.065Z,6.10
2019-03-18T15:53:01.503Z,6.10
2019-03-18T15:55:30.826Z,6.20
2019-03-18T15:58:00.112Z,6.40
2019-03-18T16:00:31.259Z,6.40
2019-03-18T16:03:00.990Z,6.30
2019-03-18T16:05:30.392Z,6.30
2019-03-18T16:07:59.711Z,6.30
2019-03-18T16:10:29.008Z,6.20
2019-03-18T16:12:58.316Z,6.20
2019-03-18T16:15:27.619Z,6.20
2019-03-18T16:17:56.938Z,6.20
2019-03-18T16:20:27.058Z,6.20
2019-03-18T16:22:56.387Z,6.10
2019-03-18T16:25:25.678Z,6.20
2019-03-18T16:27:55.024Z,6.10
2019-03-18T16:30:24.388Z,6.20
2019-03-18T16:32:53.718Z,6.20
2019-03-18T16:35:23.008Z,6.10
2019-03-18T16:37:52.332Z,6.10
2019-03-18T16:40:22.990Z,6.30
2019-03-18T16:42:52.297Z,6.40
2019-03-18T16:45:22.596Z,6.40
2019-03-18T16:47:51.952Z,6.30
2019-03-18T16:50:29.367Z,6.20
2019-03-18T16:52:58.807Z,6.10
2019-03-18T16:55:28.192Z,6.10
2019-03-18T16:57:57.560Z,6.00
2019-03-18T17:00:28.006Z,5.90
2019-03-18T17:02:57.398Z,5.80
2019-03-18T17:05:26.683Z,5.70
2019-03-18T17:07:56.007Z,5.60
2019-03-18T17:10:25.299Z,5.60
2019-03-18T17:12:54.681Z,5.50
2019-03-18T17:15:23.998Z,5.50
2019-03-18T17:17:53.304Z,5.40
2019-03-18T17:20:22.621Z,5.20
2019-03-18T17:22:51.920Z,5.10
2019-03-18T17:25:24.408Z,5.00
2019-03-18T17:27:53.850Z,4.90
2019-03-18T17:30:23.235Z,4.80
2019-03-18T17:32:52.561Z,4.70
2019-03-18T17:35:21.884Z,4.70
2019-03-18T17:37:51.185Z,4.60
2019-03-18T17:40:21.344Z,4.50
2019-03-18T17:42:50.633Z,4.40
2019-03-18T17:45:20.021Z,4.30
2019-03-18T17:47:49.320Z,4.30
2019-03-18T17:50:27.514Z,4.30
2019-03-18T17:53:02.850Z,4.20
2019-03-18T17:55:27.891Z,4.00
2019-03-18T17:57:57.290Z,4.00
2019-03-18T18:00:43.276Z,3.90
2019-03-18T18:03:12.599Z,3.90
2019-03-18T18:05:41.963Z,3.90
2019-03-18T18:08:11.368Z,3.80
2019-03-18T18:10:40.770Z,3.80
2019-03-18T18:13:10.170Z,3.80
2019-03-18T18:15:39.530Z,3.80
2019-03-18T18:18:20.916Z,3.80
2019-03-18T18:20:50.204Z,3.70
2019-03-18T18:23:19.546Z,3.70
2019-03-18T18:25:49.911Z,3.70
2019-03-18T18:28:19.228Z,3.70
2019-03-18T18:30:48.668Z,3.70
2019-03-18T18:33:17.993Z,3.70
2019-03-18T18:35:57.974Z,3.70
2019-03-18T18:38:29.368Z,3.70
2019-03-18T18:40:58.744Z,3.60
2019-03-18T18:43:28.039Z,3.60
2019-03-18T18:45:57.365Z,3.50
2019-03-18T18:48:26.704Z,3.40
2019-03-18T18:50:56.019Z,3.40
2019-03-18T18:53:26.603Z,3.30
2019-03-18T18:55:56.331Z,3.30
2019-03-18T18:58:25.637Z,3.30
2019-03-18T19:00:54.975Z,3.40
2019-03-18T19:03:24.272Z,3.40
2019-03-18T19:05:53.593Z,3.40
2019-03-18T19:08:22.883Z,3.40
2019-03-18T19:10:52.227Z,3.30
2019-03-18T19:13:21.597Z,3.30
2019-03-18T19:15:50.956Z,3.30
2019-03-18T19:18:20.280Z,3.20
2019-03-18T19:20:49.627Z,3.10
2019-03-18T19:23:19.178Z,3.10
2019-03-18T19:25:48.536Z,3.10
2019-03-18T19:28:17.873Z,3.00
2019-03-18T19:30:47.165Z,3.10
2019-03-18T19:33:16.605Z,3.10
2019-03-18T19:35:46.011Z,3.00
2019-03-18T19:38:15.741Z,3.10
2019-03-18T19:40:45.109Z,3.00
2019-03-18T19:43:14.463Z,3.10
2019-03-18T19:45:43.978Z,3.10
2019-03-18T19:48:13.290Z,3.20
2019-03-18T19:50:42.637Z,3.20
2019-03-18T19:53:12.049Z,3.10
2019-03-18T19:55:41.364Z,3.10
2019-03-18T19:58:10.804Z,3.20
2019-03-18T20:00:40.335Z,3.20
2019-03-18T20:03:10.147Z,3.20
2019-03-18T20:05:39.459Z,3.20
2019-03-18T20:08:08.848Z,3.30
2019-03-18T20:10:38.162Z,3.30
2019-03-18T20:13:07.845Z,3.30
2019-03-18T20:15:37.155Z,3.30
2019-03-18T20:18:07.036Z,3.20
2019-03-18T20:20:36.425Z,3.20
2019-03-18T20:23:06.046Z,3.20
2019-03-18T20:25:47.478Z,3.30
2019-03-18T20:28:18.771Z,3.20
2019-03-18T20:30:48.089Z,3.30
2019-03-18T20:33:17.390Z,3.30
2019-03-18T20:35:46.901Z,3.30
2019-03-18T20:38:16.304Z,3.40
2019-03-18T20:40:45.734Z,3.30
2019-03-18T20:43:15.102Z,3.30
2019-03-18T20:45:44.528Z,3.30
2019-03-18T20:48:13.825Z,3.40
2019-03-18T20:50:43.334Z,3.40
2019-03-18T20:53:12.708Z,3.30
2019-03-18T20:55:42.002Z,3.30
2019-03-18T20:58:11.361Z,3.30
2019-03-18T21:00:40.745Z,3.20
2019-03-18T21:03:10.215Z,3.10
2019-03-18T21:05:39.515Z,3.10
2019-03-18T21:08:08.840Z,3.00
2019-03-18T21:10:38.200Z,3.00
2019-03-18T21:13:07.520Z,3.00
2019-03-18T21:15:36.844Z,3.00
2019-03-18T21:18:06.245Z,2.90
2019-03-18T21:20:35.534Z,2.80
2019-03-18T21:23:04.925Z,2.70
2019-03-18T21:25:34.256Z,2.50
2019-03-18T21:28:03.552Z,2.50
2019-03-18T21:30:32.946Z,2.50
2019-03-18T21:33:02.299Z,2.50
2019-03-18T21:35:31.845Z,2.60
2019-03-18T21:38:01.297Z,2.50
2019-03-18T21:40:30.606Z,2.50
2019-03-18T21:43:00.004Z,2.40
2019-03-18T21:45:29.302Z,2.20
2019-03-18T21:47:58.629Z,2.30
2019-03-18T21:50:27.948Z,2.30
2019-03-18T21:52:57.269Z,2.30
2019-03-18T21:55:26.557Z,2.40
2019-03-18T21:57:55.896Z,2.30
2019-03-18T22:00:25.254Z,2.20
2019-03-18T22:02:54.562Z,2.20
2019-03-18T22:05:23.863Z,2.20
2019-03-18T22:07:53.288Z,2.20
2019-03-18T22:10:22.579Z,2.20
2019-03-18T22:12:51.903Z,2.20
2019-03-18T22:15:22.336Z,2.10
2019-03-18T22:17:54.553Z,2.00
2019-03-18T22:20:23.844Z,2.00
2019-03-18T22:22:53.164Z,2.00
2019-03-18T22:25:22.458Z,2.00
2019-03-18T22:27:51.782Z,2.00
2019-03-18T22:30:21.276Z,2.00
2019-03-18T22:32:50.614Z,1.90
2019-03-18T22:35:19.904Z,1.90
2019-03-18T22:37:49.301Z,1.90
2019-03-18T22:40:18.770Z,1.80
2019-03-18T22:42:48.107Z,1.70
2019-03-18T22:45:18.143Z,1.70
2019-03-18T22:47:47.731Z,1.70
2019-03-18T22:50:17.805Z,1.60
2019-03-18T22:52:47.244Z,1.70
2019-03-18T22:55:16.606Z,1.70
2019-03-18T22:57:45.932Z,1.60
2019-03-18T23:00:21.565Z,1.60
2019-03-18T23:02:52.653Z,1.60
2019-03-18T23:05:22.206Z,1.50
2019-03-18T23:07:51.539Z,1.50
2019-03-18T23:10:20.859Z,1.40
2019-03-18T23:12:51.238Z,1.50
2019-03-18T23:15:20.562Z,1.50
2019-03-18T23:17:49.853Z,1.50
2019-03-18T23:20:19.174Z,1.40
2019-03-18T23:22:48.527Z,1.50
2019-03-18T23:25:17.921Z,1.50
2019-03-18T23:27:47.221Z,1.50
2019-03-18T23:30:16.787Z,1.50
2019-03-18T23:32:46.192Z,1.40
2019-03-18T23:35:15.590Z,1.50
2019-03-18T23:37:44.875Z,1.40
2019-03-18T23:40:15.042Z,1.40
2019-03-18T23:42:45.741Z,1.30
2019-03-18T23:45:15.355Z,1.30
2019-03-18T23:47:44.754Z,1.20
2019-03-18T23:50:15.485Z,1.00
2019-03-18T23:52:44.813Z,1.00
2019-03-18T23:55:46.419Z,0.90
2019-03-18T23:58:15.712Z,0.90
